sensor_id;sensor_type;location;lat;lon;timestamp;pressure;altitude;pressure_sealevel;temperature;humidity
35647;BME280;28680;45.642;13.756;2023-07-24T00:02:05;101097.72;;;26.97;100.00
35647;BME280;28680;45.642;13.756;2023-07-24T00:04:34;101100.97;;;27.06;100.00
35647;BME280;28680;45.642;13.756;2023-07-24T00:07:00;101094.25;;;27.15;100.00
35647;BME280;28680;45.642;13.756;2023-07-24T00:09:26;101094.47;;;27.13;100.00
35647;BME280;28680;45.642;13.756;2023-07-24T00:11:52;101091.16;;;27.11;100.00
35647;BME280;28680;45.642;13.756;2023-07-24T00:14:18;101094.50;;;27.07;100.00
35647;BME280;28680;45.642;13.756;2023-07-24T00:16:44;101093.00;;;26.92;100.00
35647;BME280;28680;45.642;13.756;2023-07-24T00:19:10;101089.44;;;26.92;100.00
35647;BME280;28680;45.642;13.756;2023-07-24T00:21:36;101090.81;;;26.82;100.00
35647;BME280;28680;45.642;13.756;2023-07-24T00:24:02;101086.84;;;26.85;100.00
35647;BME280;28680;45.642;13.756;2023-07-24T00:26:28;101081.34;;;26.73;100.00
35647;BME280;28680;45.642;13.756;2023-07-24T00:28:55;101074.50;;;26.71;100.00
35647;BME280;28680;45.642;13.756;2023-07-24T00:31:21;101069.97;;;26.71;100.00
35647;BME280;28680;45.642;13.756;2023-07-24T00:33:47;101070.56;;;26.73;100.00
35647;BME280;28680;45.642;13.756;2023-07-24T00:36:13;101068.31;;;26.70;100.00
35647;BME280;28680;45.642;13.756;2023-07-24T00:38:39;101068.53;;;26.69;100.00
35647;BME280;28680;45.642;13.756;2023-07-24T00:41:06;101073.91;;;26.69;100.00
35647;BME280;28680;45.642;13.756;2023-07-24T00:43:32;101067.97;;;26.60;100.00
35647;BME280;28680;45.642;13.756;2023-07-24T00:45:58;101070.03;;;26.58;100.00
35647;BME280;28680;45.642;13.756;2023-07-24T00:48:24;101063.00;;;26.57;100.00
35647;BME280;28680;45.642;13.756;2023-07-24T00:50:51;101067.38;;;26.51;100.00
35647;BME280;28680;45.642;13.756;2023-07-24T00:53:18;101058.53;;;26.44;100.00
35647;BME280;28680;45.642;13.756;2023-07-24T00:55:47;101064.13;;;26.42;100.00
35647;BME280;28680;45.642;13.756;2023-07-24T00:58:13;101053.22;;;26.37;100.00
35647;BME280;28680;45.642;13.756;2023-07-24T01:00:41;101048.84;;;26.36;100.00
35647;BME280;28680;45.642;13.756;2023-07-24T01:03:08;101049.91;;;26.35;100.00
35647;BME280;28680;45.642;13.756;2023-07-24T01:05:36;101055.72;;;26.32;100.00
35647;BME280;28680;45.642;13.756;2023-07-24T01:08:03;101051.94;;;26.40;100.00
35647;BME280;28680;45.642;13.756;2023-07-24T01:10:30;101053.44;;;26.29;100.00
35647;BME280;28680;45.642;13.756;2023-07-24T01:13:02;101055.53;;;26.27;100.00
35647;BME280;28680;45.642;13.756;2023-07-24T01:15:31;101062.56;;;26.28;100.00
35647;BME280;28680;45.642;13.756;2023-07-24T01:18:08;101053.44;;;26.29;100.00
35647;BME280;28680;45.642;13.756;2023-07-24T01:20:42;101060.31;;;26.25;100.00
35647;BME280;28680;45.642;13.756;2023-07-24T01:23:35;101047.66;;;26.25;100.00
35647;BME280;28680;45.642;13.756;2023-07-24T01:26:05;101046.91;;;26.18;100.00
35647;BME280;28680;45.642;13.756;2023-07-24T01:28:32;101042.94;;;26.21;100.00
35647;BME280;28680;45.642;13.756;2023-07-24T01:30:58;101040.94;;;26.16;100.00
35647;BME280;28680;45.642;13.756;2023-07-24T01:33:24;101045.66;;;26.14;100.00
35647;BME280;28680;45.642;13.756;2023-07-24T01:35:59;101035.97;;;26.13;100.00
35647;BME280;28680;45.642;13.756;2023-07-24T01:38:27;101039.25;;;26.15;100.00
35647;BME280;28680;45.642;13.756;2023-07-24T01:40:54;101036.16;;;26.18;100.00
35647;BME280;28680;45.642;13.756;2023-07-24T01:43:25;101038.25;;;26.16;100.00
35647;BME280;28680;45.642;13.756;2023-07-24T01:45:54;101030.19;;;26.10;100.00
35647;BME280;28680;45.642;13.756;2023-07-24T01:48:20;101022.78;;;26.05;100.00
35647;BME280;28680;45.642;13.756;2023-07-24T01:50:47;101019.03;;;26.06;100.00
35647;BME280;28680;45.642;13.756;2023-07-24T01:53:13;101019.47;;;26.03;100.00
35647;BME280;28680;45.642;13.756;2023-07-24T01:55:39;101014.75;;;25.98;100.00
35647;BME280;28680;45.642;13.756;2023-07-24T01:58:05;101007.50;;;25.99;100.00
35647;BME280;28680;45.642;13.756;2023-07-24T02:00:31;101011.03;;;25.99;100.00
35647;BME280;28680;45.642;13.756;2023-07-24T02:02:57;101000.47;;;25.98;100.00
35647;BME280;28680;45.642;13.756;2023-07-24T02:05:23;101001.53;;;25.90;100.00
35647;BME280;28680;45.642;13.756;2023-07-24T02:07:49;101003.22;;;25.84;100.00
35647;BME280;28680;45.642;13.756;2023-07-24T02:10:15;101000.53;;;25.84;100.00
35647;BME280;28680;45.642;13.756;2023-07-24T02:12:41;100997.84;;;25.78;100.00
35647;BME280;28680;45.642;13.756;2023-07-24T02:15:08;100998.84;;;25.83;100.00
35647;BME280;28680;45.642;13.756;2023-07-24T02:17:35;100995.16;;;25.84;100.00
35647;BME280;28680;45.642;13.756;2023-07-24T02:20:01;100990.38;;;25.86;100.00
35647;BME280;28680;45.642;13.756;2023-07-24T02:22:27;100981.72;;;25.84;100.00
35647;BME280;28680;45.642;13.756;2023-07-24T02:24:53;100988.50;;;25.87;100.00
35647;BME280;28680;45.642;13.756;2023-07-24T02:27:29;100992.88;;;25.81;100.00
35647;BME280;28680;45.642;13.756;2023-07-24T02:29:58;100992.69;;;25.76;100.00
35647;BME280;28680;45.642;13.756;2023-07-24T02:32:24;100980.91;;;25.77;100.00
35647;BME280;28680;45.642;13.756;2023-07-24T02:34:51;100974.13;;;25.75;100.00
35647;BME280;28680;45.642;13.756;2023-07-24T02:37:17;100970.97;;;25.78;100.00
35647;BME280;28680;45.642;13.756;2023-07-24T02:39:44;100968.28;;;25.78;100.00
35647;BME280;28680;45.642;13.756;2023-07-24T02:42:10;100956.72;;;25.77;100.00
35647;BME280;28680;45.642;13.756;2023-07-24T02:44:36;100952.38;;;25.76;100.00
35647;BME280;28680;45.642;13.756;2023-07-24T02:47:02;100961.03;;;25.78;100.00
35647;BME280;28680;45.642;13.756;2023-07-24T02:49:29;100972.63;;;25.79;100.00
35647;BME280;28680;45.642;13.756;2023-07-24T02:51:55;100970.78;;;25.73;100.00
35647;BME280;28680;45.642;13.756;2023-07-24T02:54:21;100968.53;;;25.70;100.00
35647;BME280;28680;45.642;13.756;2023-07-24T02:56:47;100958.34;;;25.78;100.00
35647;BME280;28680;45.642;13.756;2023-07-24T02:59:13;100978.22;;;25.77;100.00
35647;BME280;28680;45.642;13.756;2023-07-24T03:01:42;100966.88;;;25.68;100.00
35647;BME280;28680;45.642;13.756;2023-07-24T03:04:08;100976.22;;;25.66;100.00
35647;BME280;28680;45.642;13.756;2023-07-24T03:06:34;100967.50;;;25.71;100.00
35647;BME280;28680;45.642;13.756;2023-07-24T03:09:00;100974.94;;;25.75;100.00
35647;BME280;28680;45.642;13.756;2023-07-24T03:11:26;100979.63;;;25.86;100.00
35647;BME280;28680;45.642;13.756;2023-07-24T03:13:52;100983.19;;;25.80;100.00
35647;BME280;28680;45.642;13.756;2023-07-24T03:16:18;100975.72;;;25.82;100.00
35647;BME280;28680;45.642;13.756;2023-07-24T03:18:47;100979.91;;;25.72;100.00
35647;BME280;28680;45.642;13.756;2023-07-24T03:21:15;100986.22;;;25.84;100.00
35647;BME280;28680;45.642;13.756;2023-07-24T03:23:41;100984.81;;;25.81;100.00
35647;BME280;28680;45.642;13.756;2023-07-24T03:26:07;100980.31;;;25.68;100.00
35647;BME280;28680;45.642;13.756;2023-07-24T03:28:33;100979.09;;;25.71;100.00
35647;BME280;28680;45.642;13.756;2023-07-24T03:30:59;100973.53;;;25.66;100.00
35647;BME280;28680;45.642;13.756;2023-07-24T03:33:25;100981.50;;;25.79;100.00
35647;BME280;28680;45.642;13.756;2023-07-24T03:35:51;100970.38;;;25.76;100.00
35647;BME280;28680;45.642;13.756;2023-07-24T03:38:18;100971.78;;;25.78;100.00
35647;BME280;28680;45.642;13.756;2023-07-24T03:40:44;100973.25;;;25.74;100.00
35647;BME280;28680;45.642;13.756;2023-07-24T03:43:10;100967.75;;;26.01;100.00
35647;BME280;28680;45.642;13.756;2023-07-24T03:45:37;100970.16;;;25.77;100.00
35647;BME280;28680;45.642;13.756;2023-07-24T03:48:03;100962.97;;;25.71;100.00
35647;BME280;28680;45.642;13.756;2023-07-24T03:50:29;100962.16;;;25.64;100.00
35647;BME280;28680;45.642;13.756;2023-07-24T03:52:55;100967.13;;;25.60;100.00
35647;BME280;28680;45.642;13.756;2023-07-24T03:55:21;100965.06;;;25.56;100.00
35647;BME280;28680;45.642;13.756;2023-07-24T03:57:47;100968.16;;;25.59;100.00
35647;BME280;28680;45.642;13.756;2023-07-24T04:00:14;100954.72;;;25.59;100.00
35647;BME280;28680;45.642;13.756;2023-07-24T04:02:40;100953.97;;;25.52;100.00
35647;BME280;28680;45.642;13.756;2023-07-24T04:05:06;100948.19;;;25.48;100.00
35647;BME280;28680;45.642;13.756;2023-07-24T04:07:32;100947.59;;;25.46;100.00
35647;BME280;28680;45.642;13.756;2023-07-24T04:09:58;100943.44;;;25.44;100.00
35647;BME280;28680;45.642;13.756;2023-07-24T04:12:24;100944.88;;;25.46;100.00
35647;BME280;28680;45.642;13.756;2023-07-24T04:14:50;100935.97;;;25.46;100.00
35647;BME280;28680;45.642;13.756;2023-07-24T04:17:16;100934.34;;;25.45;100.00
35647;BME280;28680;45.642;13.756;2023-07-24T04:19:42;100928.31;;;25.49;100.00
35647;BME280;28680;45.642;13.756;2023-07-24T04:22:11;100923.56;;;25.52;100.00
35647;BME280;28680;45.642;13.756;2023-07-24T04:24:37;100931.81;;;25.57;100.00
35647;BME280;28680;45.642;13.756;2023-07-24T04:27:03;100937.44;;;25.48;100.00
35647;BME280;28680;45.642;13.756;2023-07-24T04:29:29;100933.75;;;25.43;100.00
35647;BME280;28680;45.642;13.756;2023-07-24T04:31:55;100929.59;;;25.47;100.00
35647;BME280;28680;45.642;13.756;2023-07-24T04:34:24;100930.41;;;25.47;100.00
35647;BME280;28680;45.642;13.756;2023-07-24T04:36:50;100934.16;;;25.46;100.00
35647;BME280;28680;45.642;13.756;2023-07-24T04:39:16;100933.28;;;25.46;100.00
35647;BME280;28680;45.642;13.756;2023-07-24T04:41:42;100917.75;;;25.55;100.00
35647;BME280;28680;45.642;13.756;2023-07-24T04:44:08;100915.25;;;25.60;100.00
35647;BME280;28680;45.642;13.756;2023-07-24T04:46:34;100918.56;;;25.62;100.00
35647;BME280;28680;45.642;13.756;2023-07-24T04:49:00;100921.84;;;25.64;100.00
35647;BME280;28680;45.642;13.756;2023-07-24T04:51:26;100924.34;;;25.65;100.00
35647;BME280;28680;45.642;13.756;2023-07-24T04:53:53;100933.59;;;25.70;100.00
35647;BME280;28680;45.642;13.756;2023-07-24T04:56:21;100934.78;;;25.80;100.00
35647;BME280;28680;45.642;13.756;2023-07-24T04:58:47;100936.59;;;25.86;100.00
35647;BME280;28680;45.642;13.756;2023-07-24T05:01:14;100936.78;;;25.92;100.00
35647;BME280;28680;45.642;13.756;2023-07-24T05:03:40;100940.94;;;25.94;100.00
35647;BME280;28680;45.642;13.756;2023-07-24T05:06:06;100942.31;;;26.03;100.00
35647;BME280;28680;45.642;13.756;2023-07-24T05:08:32;100928.38;;;26.13;100.00
35647;BME280;28680;45.642;13.756;2023-07-24T05:10:58;100923.19;;;26.18;100.00
35647;BME280;28680;45.642;13.756;2023-07-24T05:13:26;100931.63;;;26.22;100.00
35647;BME280;28680;45.642;13.756;2023-07-24T05:15:52;100926.63;;;26.25;100.00
35647;BME280;28680;45.642;13.756;2023-07-24T05:18:18;100925.16;;;26.30;100.00
35647;BME280;28680;45.642;13.756;2023-07-24T05:20:48;100940.03;;;26.32;100.00
35647;BME280;28680;45.642;13.756;2023-07-24T05:23:17;100946.41;;;26.38;100.00
35647;BME280;28680;45.642;13.756;2023-07-24T05:25:43;100945.41;;;26.32;100.00
35647;BME280;28680;45.642;13.756;2023-07-24T05:28:09;100954.50;;;26.31;100.00
35647;BME280;28680;45.642;13.756;2023-07-24T05:30:35;100965.63;;;26.16;100.00
35647;BME280;28680;45.642;13.756;2023-07-24T05:33:01;100963.78;;;26.10;100.00
35647;BME280;28680;45.642;13.756;2023-07-24T05:35:30;100962.56;;;26.06;100.00
35647;BME280;28680;45.642;13.756;2023-07-24T05:37:56;100970.41;;;26.08;100.00
35647;BME280;28680;45.642;13.756;2023-07-24T05:40:22;100968.34;;;26.10;100.00
35647;BME280;28680;45.642;13.756;2023-07-24T05:42:48;100965.38;;;26.18;100.00
35647;BME280;28680;45.642;13.756;2023-07-24T05:45:14;100963.06;;;26.21;100.00
35647;BME280;28680;45.642;13.756;2023-07-24T05:47:40;100956.00;;;26.27;100.00
35647;BME280;28680;45.642;13.756;2023-07-24T05:50:07;100952.00;;;26.36;100.00
35647;BME280;28680;45.642;13.756;2023-07-24T05:52:33;100956.72;;;26.41;100.00
35647;BME280;28680;45.642;13.756;2023-07-24T05:54:59;100955.25;;;26.45;100.00
35647;BME280;28680;45.642;13.756;2023-07-24T05:57:25;100967.41;;;26.48;100.00
35647;BME280;28680;45.642;13.756;2023-07-24T05:59:51;100954.25;;;26.64;100.00
35647;BME280;28680;45.642;13.756;2023-07-24T06:02:18;100949.44;;;26.73;100.00
35647;BME280;28680;45.642;13.756;2023-07-24T06:04:44;100944.78;;;26.80;100.00
35647;BME280;28680;45.642;13.756;2023-07-24T06:07:10;100939.03;;;26.95;100.00
35647;BME280;28680;45.642;13.756;2023-07-24T06:09:36;100935.69;;;27.00;100.00
35647;BME280;28680;45.642;13.756;2023-07-24T06:12:02;100934.72;;;27.13;100.00
35647;BME280;28680;45.642;13.756;2023-07-24T06:14:28;100930.28;;;27.18;100.00
35647;BME280;28680;45.642;13.756;2023-07-24T06:16:54;100941.06;;;27.37;100.00
35647;BME280;28680;45.642;13.756;2023-07-24T06:19:20;100937.22;;;27.45;100.00
35647;BME280;28680;45.642;13.756;2023-07-24T06:21:47;100934.09;;;27.48;100.00
35647;BME280;28680;45.642;13.756;2023-07-24T06:24:13;100939.63;;;27.53;100.00
35647;BME280;28680;45.642;13.756;2023-07-24T06:26:39;100949.72;;;27.57;100.00
35647;BME280;28680;45.642;13.756;2023-07-24T06:29:05;100938.84;;;27.64;100.00
35647;BME280;28680;45.642;13.756;2023-07-24T06:31:31;100949.41;;;27.66;100.00
35647;BME280;28680;45.642;13.756;2023-07-24T06:33:57;100959.50;;;27.70;100.00
35647;BME280;28680;45.642;13.756;2023-07-24T06:36:26;100965.59;;;27.66;100.00
35647;BME280;28680;45.642;13.756;2023-07-24T06:38:52;100977.03;;;27.61;100.00
35647;BME280;28680;45.642;13.756;2023-07-24T06:41:18;100983.50;;;27.60;100.00
35647;BME280;28680;45.642;13.756;2023-07-24T06:43:46;100974.94;;;27.63;100.00
35647;BME280;28680;45.642;13.756;2023-07-24T06:46:12;100970.50;;;27.69;100.00
35647;BME280;28680;45.642;13.756;2023-07-24T06:48:38;100973.56;;;27.72;100.00
35647;BME280;28680;45.642;13.756;2023-07-24T06:51:04;100972.06;;;27.76;100.00
35647;BME280;28680;45.642;13.756;2023-07-24T06:53:30;100979.00;;;27.84;100.00
35647;BME280;28680;45.642;13.756;2023-07-24T06:55:56;100987.56;;;27.81;100.00
35647;BME280;28680;45.642;13.756;2023-07-24T06:58:22;100996.91;;;27.78;100.00
35647;BME280;28680;45.642;13.756;2023-07-24T07:00:48;101002.56;;;27.77;100.00
35647;BME280;28680;45.642;13.756;2023-07-24T07:03:14;100997.16;;;27.77;100.00
35647;BME280;28680;45.642;13.756;2023-07-24T07:05:39;100996.22;;;27.71;100.00
35647;BME280;28680;45.642;13.756;2023-07-24T07:08:11;100976.47;;;27.89;100.00
35647;BME280;28680;45.642;13.756;2023-07-24T07:10:37;100968.56;;;28.06;100.00
35647;BME280;28680;45.642;13.756;2023-07-24T07:13:12;100956.59;;;28.14;100.00
35647;BME280;28680;45.642;13.756;2023-07-24T07:15:38;100959.69;;;28.29;100.00
35647;BME280;28680;45.642;13.756;2023-07-24T07:18:04;100962.63;;;28.39;100.00
35647;BME280;28680;45.642;13.756;2023-07-24T07:20:30;100943.16;;;28.49;100.00
35647;BME280;28680;45.642;13.756;2023-07-24T07:22:56;100918.31;;;28.59;100.00
35647;BME280;28680;45.642;13.756;2023-07-24T07:25:22;100899.84;;;28.56;100.00
35647;BME280;28680;45.642;13.756;2023-07-24T07:27:48;100906.19;;;28.62;100.00
35647;BME280;28680;45.642;13.756;2023-07-24T07:30:15;100908.78;;;28.68;100.00
35647;BME280;28680;45.642;13.756;2023-07-24T07:32:42;100909.94;;;28.72;100.00
35647;BME280;28680;45.642;13.756;2023-07-24T07:35:08;100913.03;;;28.64;100.00
35647;BME280;28680;45.642;13.756;2023-07-24T07:37:34;100900.44;;;28.70;100.00
35647;BME280;28680;45.642;13.756;2023-07-24T07:40:02;100904.28;;;28.86;100.00
35647;BME280;28680;45.642;13.756;2023-07-24T07:42:29;100896.88;;;28.93;100.00
35647;BME280;28680;45.642;13.756;2023-07-24T07:44:55;100906.72;;;28.99;100.00
35647;BME280;28680;45.642;13.756;2023-07-24T07:47:21;100917.31;;;29.01;100.00
35647;BME280;28680;45.642;13.756;2023-07-24T07:49:47;100891.31;;;29.00;100.00
35647;BME280;28680;45.642;13.756;2023-07-24T07:52:13;100867.59;;;29.02;100.00
35647;BME280;28680;45.642;13.756;2023-07-24T07:54:50;100865.72;;;29.02;100.00
35647;BME280;28680;45.642;13.756;2023-07-24T07:57:16;100873.34;;;29.05;100.00
35647;BME280;28680;45.642;13.756;2023-07-24T07:59:42;100855.97;;;29.13;100.00
35647;BME280;28680;45.642;13.756;2023-07-24T08:02:08;100851.81;;;29.22;100.00
35647;BME280;28680;45.642;13.756;2023-07-24T08:04:34;100849.44;;;29.26;100.00
35647;BME280;28680;45.642;13.756;2023-07-24T08:07:00;100864.97;;;29.30;100.00
35647;BME280;28680;45.642;13.756;2023-07-24T08:09:26;100858.81;;;29.35;100.00
35647;BME280;28680;45.642;13.756;2023-07-24T08:11:52;100855.22;;;29.46;100.00
35647;BME280;28680;45.642;13.756;2023-07-24T08:14:18;100830.25;;;29.56;100.00
35647;BME280;28680;45.642;13.756;2023-07-24T08:16:44;100813.22;;;29.72;100.00
35647;BME280;28680;45.642;13.756;2023-07-24T08:19:13;100828.81;;;29.82;100.00
35647;BME280;28680;45.642;13.756;2023-07-24T08:21:39;100854.63;;;29.90;100.00
35647;BME280;28680;45.642;13.756;2023-07-24T08:24:07;100854.50;;;29.97;100.00
35647;BME280;28680;45.642;13.756;2023-07-24T08:26:33;100859.06;;;29.96;100.00
35647;BME280;28680;45.642;13.756;2023-07-24T08:29:00;100849.41;;;29.83;100.00
35647;BME280;28680;45.642;13.756;2023-07-24T08:31:41;100850.13;;;29.79;100.00
35647;BME280;28680;45.642;13.756;2023-07-24T08:34:10;100839.50;;;29.89;100.00
35647;BME280;28680;45.642;13.756;2023-07-24T08:36:42;100826.19;;;30.04;100.00
35647;BME280;28680;45.642;13.756;2023-07-24T08:39:08;100821.34;;;30.06;100.00
35647;BME280;28680;45.642;13.756;2023-07-24T08:41:43;100810.84;;;30.10;100.00
35647;BME280;28680;45.642;13.756;2023-07-24T08:44:25;100830.75;;;30.21;100.00
35647;BME280;28680;45.642;13.756;2023-07-24T08:46:53;100836.56;;;30.29;100.00
35647;BME280;28680;45.642;13.756;2023-07-24T08:49:19;100835.91;;;30.22;100.00
35647;BME280;28680;45.642;13.756;2023-07-24T08:51:47;100837.13;;;30.31;100.00
35647;BME280;28680;45.642;13.756;2023-07-24T08:54:13;100834.03;;;30.23;100.00
35647;BME280;28680;45.642;13.756;2023-07-24T08:56:40;100837.88;;;30.44;100.00
35647;BME280;28680;45.642;13.756;2023-07-24T08:59:13;100833.75;;;30.41;100.00
35647;BME280;28680;45.642;13.756;2023-07-24T09:01:42;100830.38;;;30.51;100.00
35647;BME280;28680;45.642;13.756;2023-07-24T09:04:08;100819.63;;;30.56;100.00
35647;BME280;28680;45.642;13.756;2023-07-24T09:06:34;100794.03;;;30.69;100.00
35647;BME280;28680;45.642;13.756;2023-07-24T09:09:01;100768.28;;;30.66;100.00
35647;BME280;28680;45.642;13.756;2023-07-24T09:11:54;100777.97;;;30.84;100.00
35647;BME280;28680;45.642;13.756;2023-07-24T09:14:26;100790.69;;;30.84;100.00
35647;BME280;28680;45.642;13.756;2023-07-24T09:17:09;100794.88;;;30.92;100.00
35647;BME280;28680;45.642;13.756;2023-07-24T09:19:36;100790.38;;;31.02;100.00
35647;BME280;28680;45.642;13.756;2023-07-24T09:22:12;100775.19;;;31.01;100.00
35647;BME280;28680;45.642;13.756;2023-07-24T09:24:56;100798.53;;;31.07;100.00
35647;BME280;28680;45.642;13.756;2023-07-24T09:27:28;100793.41;;;31.06;100.00
35647;BME280;28680;45.642;13.756;2023-07-24T09:29:58;100795.06;;;31.39;100.00
35647;BME280;28680;45.642;13.756;2023-07-24T09:32:28;100793.56;;;31.21;100.00
35647;BME280;28680;45.642;13.756;2023-07-24T09:34:54;100792.06;;;31.08;100.00
35647;BME280;28680;45.642;13.756;2023-07-24T09:37:30;100781.16;;;31.03;100.00
35647;BME280;28680;45.642;13.756;2023-07-24T09:39:57;100770.72;;;31.17;100.00
35647;BME280;28680;45.642;13.756;2023-07-24T09:42:31;100773.91;;;31.41;100.00
35647;BME280;28680;45.642;13.756;2023-07-24T09:44:57;100777.63;;;31.62;100.00
35647;BME280;28680;45.642;13.756;2023-07-24T09:47:23;100776.75;;;31.89;100.00
35647;BME280;28680;45.642;13.756;2023-07-24T09:49:51;100778.25;;;31.70;100.00
35647;BME280;28680;45.642;13.756;2023-07-24T09:52:20;100772.44;;;31.56;100.00
35647;BME280;28680;45.642;13.756;2023-07-24T09:57:28;100753.53;;;31.34;100.00
35647;BME280;28680;45.642;13.756;2023-07-24T09:59:56;100732.00;;;31.22;100.00
35647;BME280;28680;45.642;13.756;2023-07-24T10:02:23;100699.13;;;31.13;100.00
35647;BME280;28680;45.642;13.756;2023-07-24T10:04:50;100666.19;;;31.32;100.00
35647;BME280;28680;45.642;13.756;2023-07-24T10:07:16;100673.84;;;31.35;100.00
35647;BME280;28680;45.642;13.756;2023-07-24T10:09:46;100675.59;;;31.19;100.00
35647;BME280;28680;45.642;13.756;2023-07-24T10:12:12;100703.19;;;31.11;100.00
35647;BME280;28680;45.642;13.756;2023-07-24T10:14:39;100751.28;;;30.98;100.00
35647;BME280;28680;45.642;13.756;2023-07-24T10:17:05;100785.59;;;30.87;100.00
35647;BME280;28680;45.642;13.756;2023-07-24T10:19:43;100790.94;;;30.82;100.00
35647;BME280;28680;45.642;13.756;2023-07-24T10:22:20;100759.97;;;30.73;100.00
35647;BME280;28680;45.642;13.756;2023-07-24T10:24:47;100740.38;;;30.66;100.00
35647;BME280;28680;45.642;13.756;2023-07-24T10:27:13;100774.59;;;30.72;100.00
35647;BME280;28680;45.642;13.756;2023-07-24T10:29:39;100746.72;;;30.77;100.00
35647;BME280;28680;45.642;13.756;2023-07-24T10:32:26;100743.03;;;30.88;100.00
35647;BME280;28680;45.642;13.756;2023-07-24T10:35:08;100788.03;;;30.89;100.00
35647;BME280;28680;45.642;13.756;2023-07-24T10:37:36;100804.56;;;30.87;100.00
35647;BME280;28680;45.642;13.756;2023-07-24T10:40:06;100812.06;;;30.80;100.00
35647;BME280;28680;45.642;13.756;2023-07-24T10:42:33;100826.88;;;30.73;100.00
35647;BME280;28680;45.642;13.756;2023-07-24T10:45:07;100851.41;;;30.66;100.00
35647;BME280;28680;45.642;13.756;2023-07-24T10:47:34;100848.16;;;30.64;100.00
35647;BME280;28680;45.642;13.756;2023-07-24T10:50:00;100868.75;;;30.65;100.00
35647;BME280;28680;45.642;13.756;2023-07-24T10:52:33;100850.03;;;30.63;100.00
35647;BME280;28680;45.642;13.756;2023-07-24T10:55:03;100805.69;;;30.69;100.00
35647;BME280;28680;45.642;13.756;2023-07-24T10:57:29;100807.19;;;30.82;100.00
35647;BME280;28680;45.642;13.756;2023-07-24T10:59:56;100817.00;;;30.88;100.00
35647;BME280;28680;45.642;13.756;2023-07-24T11:02:22;100827.81;;;30.83;100.00
35647;BME280;28680;45.642;13.756;2023-07-24T11:04:49;100821.56;;;30.83;100.00
35647;BME280;28680;45.642;13.756;2023-07-24T11:07:15;100826.41;;;30.81;100.00
35647;BME280;28680;45.642;13.756;2023-07-24T11:09:42;100843.47;;;30.81;100.00
35647;BME280;28680;45.642;13.756;2023-07-24T11:14:52;100891.00;;;30.67;100.00
35647;BME280;28680;45.642;13.756;2023-07-24T11:17:22;100896.66;;;30.65;100.00
35647;BME280;28680;45.642;13.756;2023-07-24T11:19:48;100903.00;;;30.54;100.00
35647;BME280;28680;45.642;13.756;2023-07-24T11:22:14;100919.34;;;30.42;100.00
35647;BME280;28680;45.642;13.756;2023-07-24T11:24:47;100919.16;;;30.49;100.00
35647;BME280;28680;45.642;13.756;2023-07-24T11:27:15;100899.47;;;30.54;100.00
35647;BME280;28680;45.642;13.756;2023-07-24T11:29:47;100876.06;;;30.64;100.00
35647;BME280;28680;45.642;13.756;2023-07-24T11:32:20;100839.84;;;30.70;100.00
35647;BME280;28680;45.642;13.756;2023-07-24T11:34:58;100835.88;;;30.78;100.00
35647;BME280;28680;45.642;13.756;2023-07-24T11:37:24;100840.53;;;30.83;100.00
35647;BME280;28680;45.642;13.756;2023-07-24T11:40:01;100840.47;;;30.78;100.00
35647;BME280;28680;45.642;13.756;2023-07-24T11:42:46;100837.06;;;30.65;100.00
35647;BME280;28680;45.642;13.756;2023-07-24T11:45:12;100825.66;;;30.63;100.00
35647;BME280;28680;45.642;13.756;2023-07-24T11:47:49;100782.50;;;30.57;100.00
35647;BME280;28680;45.642;13.756;2023-07-24T11:50:17;100749.81;;;30.63;100.00
35647;BME280;28680;45.642;13.756;2023-07-24T11:52:55;100749.59;;;30.65;100.00
35647;BME280;28680;45.642;13.756;2023-07-24T11:55:32;100759.59;;;30.64;100.00
35647;BME280;28680;45.642;13.756;2023-07-24T11:58:00;100751.97;;;30.61;100.00
35647;BME280;28680;45.642;13.756;2023-07-24T12:00:33;100706.97;;;30.55;100.00
35647;BME280;28680;45.642;13.756;2023-07-24T12:03:00;100656.97;;;30.68;100.00
35647;BME280;28680;45.642;13.756;2023-07-24T12:05:26;100668.97;;;30.77;100.00
35647;BME280;28680;45.642;13.756;2023-07-24T12:07:54;100712.84;;;31.01;100.00
35647;BME280;28680;45.642;13.756;2023-07-24T12:10:27;100735.34;;;31.02;100.00
35647;BME280;28680;45.642;13.756;2023-07-24T12:12:57;100744.63;;;31.06;100.00
35647;BME280;28680;45.642;13.756;2023-07-24T12:15:24;100737.94;;;31.19;100.00
35647;BME280;28680;45.642;13.756;2023-07-24T12:17:50;100740.00;;;31.39;100.00
35647;BME280;28680;45.642;13.756;2023-07-24T12:20:16;100727.69;;;31.58;100.00
35647;BME280;28680;45.642;13.756;2023-07-24T12:22:42;100722.66;;;31.72;100.00
35647;BME280;28680;45.642;13.756;2023-07-24T12:25:14;100708.03;;;31.78;100.00
35647;BME280;28680;45.642;13.756;2023-07-24T12:27:47;100699.66;;;31.80;100.00
35647;BME280;28680;45.642;13.756;2023-07-24T12:30:14;100711.19;;;32.02;100.00
35647;BME280;28680;45.642;13.756;2023-07-24T12:32:46;100706.47;;;31.93;100.00
35647;BME280;28680;45.642;13.756;2023-07-24T12:35:27;100684.50;;;31.89;100.00
35647;BME280;28680;45.642;13.756;2023-07-24T12:37:53;100674.19;;;31.91;100.00
35647;BME280;28680;45.642;13.756;2023-07-24T12:40:19;100678.25;;;31.94;100.00